sensor_id;sensor_type;location;lat;lon;timestamp;P1;durP1;ratioP1;P2;durP2;ratioP2
11614;SDS011;5863;52.832;4.758;2023-10-31T00:01:14;6.60;;;1.50;;
11614;SDS011;5863;52.832;4.758;2023-10-31T00:03:41;5.35;;;1.52;;
11614;SDS011;5863;52.832;4.758;2023-10-31T00:06:09;9.32;;;1.98;;
11614;SDS011;5863;52.832;4.758;2023-10-31T00:08:37;6.05;;;1.83;;
11614;SDS011;5863;52.832;4.758;2023-10-31T00:11:04;6.25;;;1.60;;
11614;SDS011;5863;52.832;4.758;2023-10-31T00:13:31;5.68;;;1.75;;
11614;SDS011;5863;52.832;4.758;2023-10-31T00:15:57;5.28;;;1.70;;
11614;SDS011;5863;52.832;4.758;2023-10-31T00:18:24;8.20;;;1.83;;
11614;SDS011;5863;52.832;4.758;2023-10-31T00:20:51;10.10;;;1.80;;
11614;SDS011;5863;52.832;4.758;2023-10-31T00:23:17;6.68;;;1.95;;
11614;SDS011;5863;52.832;4.758;2023-10-31T00:25:45;2.95;;;1.55;;
11614;SDS011;5863;52.832;4.758;2023-10-31T00:28:12;4.78;;;1.88;;
11614;SDS011;5863;52.832;4.758;2023-10-31T00:30:38;3.92;;;1.48;;
11614;SDS011;5863;52.832;4.758;2023-10-31T00:33:05;5.30;;;1.50;;
11614;SDS011;5863;52.832;4.758;2023-10-31T00:35:32;8.35;;;1.90;;
11614;SDS011;5863;52.832;4.758;2023-10-31T00:37:58;9.35;;;1.70;;
11614;SDS011;5863;52.832;4.758;2023-10-31T00:40:25;6.13;;;1.45;;
11614;SDS011;5863;52.832;4.758;2023-10-31T00:42:53;3.17;;;1.48;;
11614;SDS011;5863;52.832;4.758;2023-10-31T00:45:23;7.57;;;1.45;;
11614;SDS011;5863;52.832;4.758;2023-10-31T00:47:50;7.55;;;1.30;;
11614;SDS011;5863;52.832;4.758;2023-10-31T00:50:17;3.92;;;1.30;;
11614;SDS011;5863;52.832;4.758;2023-10-31T00:52:44;3.65;;;1.15;;
11614;SDS011;5863;52.832;4.758;2023-10-31T00:55:11;3.90;;;1.10;;
11614;SDS011;5863;52.832;4.758;2023-10-31T00:57:37;5.45;;;1.20;;
11614;SDS011;5863;52.832;4.758;2023-10-31T01:00:06;4.80;;;1.13;;
11614;SDS011;5863;52.832;4.758;2023-10-31T01:02:34;2.90;;;0.90;;
11614;SDS011;5863;52.832;4.758;2023-10-31T01:05:01;5.00;;;1.08;;
11614;SDS011;5863;52.832;4.758;2023-10-31T01:07:28;4.50;;;1.15;;
11614;SDS011;5863;52.832;4.758;2023-10-31T01:09:55;8.10;;;0.98;;
11614;SDS011;5863;52.832;4.758;2023-10-31T01:12:21;3.53;;;1.08;;
11614;SDS011;5863;52.832;4.758;2023-10-31T01:14:48;2.53;;;1.00;;
11614;SDS011;5863;52.832;4.758;2023-10-31T01:17:16;2.08;;;0.70;;
11614;SDS011;5863;52.832;4.758;2023-10-31T01:19:43;5.60;;;1.08;;
11614;SDS011;5863;52.832;4.758;2023-10-31T01:22:09;2.47;;;1.10;;
11614;SDS011;5863;52.832;4.758;2023-10-31T01:24:36;2.50;;;0.88;;
11614;SDS011;5863;52.832;4.758;2023-10-31T01:27:03;4.22;;;1.10;;
11614;SDS011;5863;52.832;4.758;2023-10-31T01:29:30;3.65;;;1.02;;
11614;SDS011;5863;52.832;4.758;2023-10-31T01:31:57;2.55;;;0.75;;
11614;SDS011;5863;52.832;4.758;2023-10-31T01:34:26;5.53;;;1.00;;
11614;SDS011;5863;52.832;4.758;2023-10-31T01:36:53;5.80;;;1.10;;
11614;SDS011;5863;52.832;4.758;2023-10-31T01:39:19;5.90;;;1.00;;
11614;SDS011;5863;52.832;4.758;2023-10-31T01:41:46;2.70;;;1.00;;
11614;SDS011;5863;52.832;4.758;2023-10-31T01:44:13;2.63;;;1.05;;
11614;SDS011;5863;52.832;4.758;2023-10-31T01:46:40;5.72;;;1.38;;
11614;SDS011;5863;52.832;4.758;2023-10-31T01:49:07;2.20;;;0.98;;
11614;SDS011;5863;52.832;4.758;2023-10-31T01:51:35;1.52;;;0.85;;
11614;SDS011;5863;52.832;4.758;2023-10-31T01:54:02;3.55;;;1.35;;
11614;SDS011;5863;52.832;4.758;2023-10-31T01:56:29;1.25;;;0.88;;
11614;SDS011;5863;52.832;4.758;2023-10-31T01:58:56;1.83;;;0.68;;
11614;SDS011;5863;52.832;4.758;2023-10-31T02:01:23;3.65;;;0.85;;
11614;SDS011;5863;52.832;4.758;2023-10-31T02:03:49;3.75;;;0.85;;
11614;SDS011;5863;52.832;4.758;2023-10-31T02:06:16;2.58;;;0.77;;
11614;SDS011;5863;52.832;4.758;2023-10-31T02:08:44;4.50;;;0.90;;
11614;SDS011;5863;52.832;4.758;2023-10-31T02:11:13;5.93;;;1.10;;
11614;SDS011;5863;52.832;4.758;2023-10-31T02:13:40;3.88;;;1.02;;
11614;SDS011;5863;52.832;4.758;2023-10-31T02:16:07;2.80;;;0.73;;
11614;SDS011;5863;52.832;4.758;2023-10-31T02:18:34;4.68;;;0.82;;
11614;SDS011;5863;52.832;4.758;2023-10-31T02:21:00;3.15;;;0.88;;
11614;SDS011;5863;52.832;4.758;2023-10-31T02:23:29;3.78;;;0.88;;
11614;SDS011;5863;52.832;4.758;2023-10-31T02:25:55;4.47;;;0.73;;
11614;SDS011;5863;52.832;4.758;2023-10-31T02:28:23;5.93;;;0.82;;
11614;SDS011;5863;52.832;4.758;2023-10-31T02:30:52;7.43;;;0.90;;
11614;SDS011;5863;52.832;4.758;2023-10-31T02:33:19;2.75;;;0.90;;
11614;SDS011;5863;52.832;4.758;2023-10-31T02:35:45;3.08;;;0.93;;
11614;SDS011;5863;52.832;4.758;2023-10-31T02:38:12;6.18;;;1.02;;
11614;SDS011;5863;52.832;4.758;2023-10-31T02:40:40;8.70;;;1.13;;
11614;SDS011;5863;52.832;4.758;2023-10-31T02:43:07;2.15;;;0.80;;
11614;SDS011;5863;52.832;4.758;2023-10-31T02:45:34;4.03;;;1.00;;
11614;SDS011;5863;52.832;4.758;2023-10-31T02:48:00;6.07;;;1.00;;
11614;SDS011;5863;52.832;4.758;2023-10-31T02:50:27;3.88;;;1.10;;
11614;SDS011;5863;52.832;4.758;2023-10-31T02:52:54;6.40;;;1.02;;
11614;SDS011;5863;52.832;4.758;2023-10-31T02:55:20;4.25;;;1.13;;
11614;SDS011;5863;52.832;4.758;2023-10-31T02:57:48;6.38;;;1.13;;
11614;SDS011;5863;52.832;4.758;2023-10-31T03:00:15;2.92;;;1.08;;
11614;SDS011;5863;52.832;4.758;2023-10-31T03:02:42;4.05;;;1.40;;
11614;SDS011;5863;52.832;4.758;2023-10-31T03:05:09;3.42;;;0.85;;
11614;SDS011;5863;52.832;4.758;2023-10-31T03:07:36;7.45;;;1.17;;
11614;SDS011;5863;52.832;4.758;2023-10-31T03:10:02;7.32;;;1.30;;
11614;SDS011;5863;52.832;4.758;2023-10-31T03:12:30;4.80;;;1.00;;
11614;SDS011;5863;52.832;4.758;2023-10-31T03:14:58;4.18;;;0.70;;
11614;SDS011;5863;52.832;4.758;2023-10-31T03:17:27;4.40;;;0.98;;
11614;SDS011;5863;52.832;4.758;2023-10-31T03:19:54;4.95;;;1.10;;
11614;SDS011;5863;52.832;4.758;2023-10-31T03:22:21;3.80;;;1.00;;
11614;SDS011;5863;52.832;4.758;2023-10-31T03:24:47;4.40;;;1.10;;
11614;SDS011;5863;52.832;4.758;2023-10-31T03:27:14;2.22;;;0.85;;
11614;SDS011;5863;52.832;4.758;2023-10-31T03:29:41;2.78;;;0.80;;
11614;SDS011;5863;52.832;4.758;2023-10-31T03:32:09;3.22;;;0.80;;
11614;SDS011;5863;52.832;4.758;2023-10-31T03:34:36;5.35;;;0.95;;
11614;SDS011;5863;52.832;4.758;2023-10-31T03:37:03;8.77;;;0.98;;
11614;SDS011;5863;52.832;4.758;2023-10-31T03:39:30;5.35;;;0.88;;
11614;SDS011;5863;52.832;4.758;2023-10-31T03:41:56;4.55;;;0.90;;
11614;SDS011;5863;52.832;4.758;2023-10-31T03:44:23;3.40;;;0.88;;
11614;SDS011;5863;52.832;4.758;2023-10-31T03:46:50;3.08;;;0.77;;
11614;SDS011;5863;52.832;4.758;2023-10-31T03:49:18;7.20;;;1.00;;
11614;SDS011;5863;52.832;4.758;2023-10-31T03:51:44;5.43;;;1.02;;
11614;SDS011;5863;52.832;4.758;2023-10-31T03:54:11;7.72;;;0.98;;
11614;SDS011;5863;52.832;4.758;2023-10-31T03:56:38;7.72;;;1.40;;
11614;SDS011;5863;52.832;4.758;2023-10-31T03:59:05;2.58;;;0.80;;
11614;SDS011;5863;52.832;4.758;2023-10-31T04:01:32;6.05;;;1.20;;
11614;SDS011;5863;52.832;4.758;2023-10-31T04:03:59;6.30;;;1.42;;
11614;SDS011;5863;52.832;4.758;2023-10-31T04:06:27;8.00;;;1.10;;
11614;SDS011;5863;52.832;4.758;2023-10-31T04:08:56;4.88;;;1.30;;
11614;SDS011;5863;52.832;4.758;2023-10-31T04:11:23;8.35;;;1.33;;
11614;SDS011;5863;52.832;4.758;2023-10-31T04:13:50;3.28;;;1.60;;
11614;SDS011;5863;52.832;4.758;2023-10-31T04:16:16;3.35;;;1.23;;
11614;SDS011;5863;52.832;4.758;2023-10-31T04:18:43;4.03;;;1.23;;
11614;SDS011;5863;52.832;4.758;2023-10-31T04:21:10;5.68;;;1.33;;
11614;SDS011;5863;52.832;4.758;2023-10-31T04:23:38;7.15;;;1.52;;
11614;SDS011;5863;52.832;4.758;2023-10-31T04:26:05;1.65;;;1.15;;
11614;SDS011;5863;52.832;4.758;2023-10-31T04:28:31;4.63;;;1.10;;
11614;SDS011;5863;52.832;4.758;2023-10-31T04:30:58;5.07;;;0.90;;
11614;SDS011;5863;52.832;4.758;2023-10-31T04:33:24;2.10;;;0.70;;
11614;SDS011;5863;52.832;4.758;2023-10-31T04:35:51;1.15;;;0.70;;
11614;SDS011;5863;52.832;4.758;2023-10-31T04:38:18;5.45;;;1.15;;
11614;SDS011;5863;52.832;4.758;2023-10-31T04:40:46;6.13;;;1.15;;
11614;SDS011;5863;52.832;4.758;2023-10-31T04:43:13;2.55;;;0.75;;
11614;SDS011;5863;52.832;4.758;2023-10-31T04:45:39;1.45;;;1.05;;
11614;SDS011;5863;52.832;4.758;2023-10-31T04:48:06;3.20;;;0.75;;
11614;SDS011;5863;52.832;4.758;2023-10-31T04:50:33;2.28;;;1.10;;
11614;SDS011;5863;52.832;4.758;2023-10-31T04:53:00;1.23;;;0.60;;
11614;SDS011;5863;52.832;4.758;2023-10-31T04:55:26;1.05;;;0.68;;
11614;SDS011;5863;52.832;4.758;2023-10-31T04:57:54;1.88;;;0.80;;
11614;SDS011;5863;52.832;4.758;2023-10-31T05:00:24;0.82;;;0.65;;
11614;SDS011;5863;52.832;4.758;2023-10-31T05:02:51;1.85;;;0.75;;
11614;SDS011;5863;52.832;4.758;2023-10-31T05:05:17;1.27;;;0.68;;
11614;SDS011;5863;52.832;4.758;2023-10-31T05:07:44;3.17;;;0.80;;
11614;SDS011;5863;52.832;4.758;2023-10-31T05:10:11;1.33;;;0.60;;
11614;SDS011;5863;52.832;4.758;2023-10-31T05:12:38;2.28;;;0.60;;
11614;SDS011;5863;52.832;4.758;2023-10-31T05:15:06;3.75;;;0.50;;
11614;SDS011;5863;52.832;4.758;2023-10-31T05:17:34;0.90;;;0.52;;
11614;SDS011;5863;52.832;4.758;2023-10-31T05:20:00;4.07;;;0.65;;
11614;SDS011;5863;52.832;4.758;2023-10-31T05:22:27;4.70;;;1.00;;
11614;SDS011;5863;52.832;4.758;2023-10-31T05:24:54;4.63;;;0.90;;
11614;SDS011;5863;52.832;4.758;2023-10-31T05:27:21;7.10;;;1.00;;
11614;SDS011;5863;52.832;4.758;2023-10-31T05:29:47;2.58;;;0.90;;
11614;SDS011;5863;52.832;4.758;2023-10-31T05:32:15;2.60;;;0.70;;
11614;SDS011;5863;52.832;4.758;2023-10-31T05:34:42;4.53;;;1.00;;
11614;SDS011;5863;52.832;4.758;2023-10-31T05:37:09;2.45;;;0.93;;
11614;SDS011;5863;52.832;4.758;2023-10-31T05:39:35;3.00;;;1.00;;
11614;SDS011;5863;52.832;4.758;2023-10-31T05:42:02;3.17;;;0.68;;
11614;SDS011;5863;52.832;4.758;2023-10-31T05:44:29;5.60;;;1.10;;
11614;SDS011;5863;52.832;4.758;2023-10-31T05:46:56;2.97;;;0.80;;
11614;SDS011;5863;52.832;4.758;2023-10-31T05:49:24;2.17;;;0.75;;
11614;SDS011;5863;52.832;4.758;2023-10-31T05:51:50;2.03;;;0.85;;
11614;SDS011;5863;52.832;4.758;2023-10-31T05:54:17;3.22;;;0.90;;
11614;SDS011;5863;52.832;4.758;2023-10-31T05:56:44;1.88;;;0.70;;
11614;SDS011;5863;52.832;4.758;2023-10-31T05:59:11;5.47;;;0.90;;
11614;SDS011;5863;52.832;4.758;2023-10-31T06:01:38;8.88;;;1.00;;
11614;SDS011;5863;52.832;4.758;2023-10-31T06:04:04;2.33;;;0.75;;
11614;SDS011;5863;52.832;4.758;2023-10-31T06:06:32;4.78;;;0.90;;
11614;SDS011;5863;52.832;4.758;2023-10-31T06:09:03;3.70;;;0.77;;
11614;SDS011;5863;52.832;4.758;2023-10-31T06:11:29;1.75;;;0.70;;
11614;SDS011;5863;52.832;4.758;2023-10-31T06:13:56;5.43;;;1.10;;
11614;SDS011;5863;52.832;4.758;2023-10-31T06:16:24;3.72;;;1.05;;
11614;SDS011;5863;52.832;4.758;2023-10-31T06:18:53;4.25;;;0.80;;
11614;SDS011;5863;52.832;4.758;2023-10-31T06:21:19;1.27;;;0.40;;
11614;SDS011;5863;52.832;4.758;2023-10-31T06:23:47;4.05;;;0.63;;
11614;SDS011;5863;52.832;4.758;2023-10-31T06:26:14;1.70;;;0.63;;
11614;SDS011;5863;52.832;4.758;2023-10-31T06:28:41;3.40;;;0.60;;
11614;SDS011;5863;52.832;4.758;2023-10-31T06:31:07;7.75;;;1.13;;
11614;SDS011;5863;52.832;4.758;2023-10-31T06:33:34;3.15;;;0.43;;
11614;SDS011;5863;52.832;4.758;2023-10-31T06:36:01;2.05;;;0.75;;
11614;SDS011;5863;52.832;4.758;2023-10-31T06:38:28;2.38;;;1.00;;
11614;SDS011;5863;52.832;4.758;2023-10-31T06:40:56;5.90;;;0.98;;
11614;SDS011;5863;52.832;4.758;2023-10-31T06:43:23;3.42;;;1.30;;
11614;SDS011;5863;52.832;4.758;2023-10-31T06:45:49;2.92;;;1.00;;
11614;SDS011;5863;52.832;4.758;2023-10-31T06:48:16;3.30;;;1.13;;
11614;SDS011;5863;52.832;4.758;2023-10-31T06:50:43;4.78;;;1.30;;
11614;SDS011;5863;52.832;4.758;2023-10-31T06:53:09;1.38;;;0.80;;
11614;SDS011;5863;52.832;4.758;2023-10-31T06:55:36;2.85;;;0.93;;
11614;SDS011;5863;52.832;4.758;2023-10-31T06:58:04;1.65;;;0.77;;
11614;SDS011;5863;52.832;4.758;2023-10-31T07:00:31;5.68;;;1.20;;
11614;SDS011;5863;52.832;4.758;2023-10-31T07:02:57;3.75;;;0.82;;
11614;SDS011;5863;52.832;4.758;2023-10-31T07:05:29;5.85;;;1.48;;
11614;SDS011;5863;52.832;4.758;2023-10-31T07:07:56;7.38;;;1.38;;
11614;SDS011;5863;52.832;4.758;2023-10-31T07:10:23;6.10;;;1.40;;
11614;SDS011;5863;52.832;4.758;2023-10-31T07:12:49;3.95;;;1.38;;
11614;SDS011;5863;52.832;4.758;2023-10-31T07:15:17;5.03;;;1.15;;
11614;SDS011;5863;52.832;4.758;2023-10-31T07:17:44;5.05;;;1.20;;
11614;SDS011;5863;52.832;4.758;2023-10-31T07:20:11;2.40;;;1.08;;
11614;SDS011;5863;52.832;4.758;2023-10-31T07:22:37;5.38;;;1.15;;
11614;SDS011;5863;52.832;4.758;2023-10-31T07:25:05;1.95;;;0.80;;
11614;SDS011;5863;52.832;4.758;2023-10-31T07:27:32;4.55;;;1.40;;
11614;SDS011;5863;52.832;4.758;2023-10-31T07:29:58;3.42;;;1.23;;
11614;SDS011;5863;52.832;4.758;2023-10-31T07:32:26;4.25;;;0.75;;
11614;SDS011;5863;52.832;4.758;2023-10-31T07:34:53;2.78;;;0.80;;
11614;SDS011;5863;52.832;4.758;2023-10-31T07:37:20;6.47;;;1.00;;
11614;SDS011;5863;52.832;4.758;2023-10-31T07:39:46;2.97;;;0.63;;
11614;SDS011;5863;52.832;4.758;2023-10-31T07:42:13;4.10;;;1.08;;
11614;SDS011;5863;52.832;4.758;2023-10-31T07:44:40;2.63;;;0.80;;
11614;SDS011;5863;52.832;4.758;2023-10-31T07:47:07;4.70;;;0.80;;
11614;SDS011;5863;52.832;4.758;2023-10-31T07:49:35;2.17;;;0.77;;
11614;SDS011;5863;52.832;4.758;2023-10-31T07:52:01;1.60;;;0.55;;
11614;SDS011;5863;52.832;4.758;2023-10-31T07:54:28;3.20;;;0.93;;
11614;SDS011;5863;52.832;4.758;2023-10-31T07:56:55;5.15;;;0.90;;
11614;SDS011;5863;52.832;4.758;2023-10-31T07:59:22;6.10;;;1.02;;
11614;SDS011;5863;52.832;4.758;2023-10-31T08:01:48;4.95;;;1.23;;
11614;SDS011;5863;52.832;4.758;2023-10-31T08:04:17;1.52;;;0.85;;
11614;SDS011;5863;52.832;4.758;2023-10-31T08:06:45;4.93;;;0.77;;
11614;SDS011;5863;52.832;4.758;2023-10-31T08:09:11;1.83;;;0.70;;
11614;SDS011;5863;52.832;4.758;2023-10-31T08:11:38;3.72;;;0.52;;
11614;SDS011;5863;52.832;4.758;2023-10-31T08:14:05;2.22;;;0.60;;
11614;SDS011;5863;52.832;4.758;2023-10-31T08:16:31;5.15;;;0.98;;
11614;SDS011;5863;52.832;4.758;2023-10-31T08:18:59;5.05;;;0.75;;
11614;SDS011;5863;52.832;4.758;2023-10-31T08:21:25;3.83;;;0.85;;
11614;SDS011;5863;52.832;4.758;2023-10-31T08:23:54;5.03;;;0.70;;
11614;SDS011;5863;52.832;4.758;2023-10-31T08:26:21;2.70;;;0.88;;
11614;SDS011;5863;52.832;4.758;2023-10-31T08:28:48;4.47;;;0.70;;
11614;SDS011;5863;52.832;4.758;2023-10-31T08:31:14;8.93;;;0.90;;
11614;SDS011;5863;52.832;4.758;2023-10-31T08:33:41;8.30;;;1.38;;
11614;SDS011;5863;52.832;4.758;2023-10-31T08:36:08;1.17;;;0.55;;
11614;SDS011;5863;52.832;4.758;2023-10-31T08:38:35;2.03;;;0.82;;
11614;SDS011;5863;52.832;4.758;2023-10-31T08:41:03;1.55;;;0.70;;
11614;SDS011;5863;52.832;4.758;2023-10-31T08:43:30;4.47;;;0.90;;
11614;SDS011;5863;52.832;4.758;2023-10-31T08:45:56;3.13;;;0.55;;
11614;SDS011;5863;52.832;4.758;2023-10-31T08:48:23;2.75;;;0.70;;
11614;SDS011;5863;52.832;4.758;2023-10-31T08:50:50;2.85;;;0.88;;
11614;SDS011;5863;52.832;4.758;2023-10-31T08:53:17;4.55;;;1.20;;
11614;SDS011;5863;52.832;4.758;2023-10-31T08:55:44;3.08;;;0.70;;
11614;SDS011;5863;52.832;4.758;2023-10-31T08:58:12;4.07;;;0.68;;
11614;SDS011;5863;52.832;4.758;2023-10-31T09:00:39;2.42;;;0.70;;
11614;SDS011;5863;52.832;4.758;2023-10-31T09:03:06;1.77;;;0.80;;
11614;SDS011;5863;52.832;4.758;2023-10-31T09:05:33;1.00;;;0.50;;
11614;SDS011;5863;52.832;4.758;2023-10-31T09:08:00;4.68;;;0.73;;
11614;SDS011;5863;52.832;4.758;2023-10-31T09:10:27;1.13;;;0.52;;
11614;SDS011;5863;52.832;4.758;2023-10-31T09:12:53;3.22;;;0.80;;
11614;SDS011;5863;52.832;4.758;2023-10-31T09:15:22;3.33;;;0.70;;
11614;SDS011;5863;52.832;4.758;2023-10-31T09:17:49;1.92;;;0.77;;
11614;SDS011;5863;52.832;4.758;2023-10-31T09:20:15;1.17;;;0.60;;
11614;SDS011;5863;52.832;4.758;2023-10-31T09:22:42;3.67;;;0.90;;
11614;SDS011;5863;52.832;4.758;2023-10-31T09:25:09;1.92;;;0.57;;
11614;SDS011;5863;52.832;4.758;2023-10-31T09:27:36;2.70;;;0.55;;
11614;SDS011;5863;52.832;4.758;2023-10-31T09:30:04;1.85;;;0.40;;
11614;SDS011;5863;52.832;4.758;2023-10-31T09:32:33;7.07;;;1.15;;
11614;SDS011;5863;52.832;4.758;2023-10-31T09:34:59;2.33;;;0.50;;
11614;SDS011;5863;52.832;4.758;2023-10-31T09:37:26;2.92;;;0.60;;
11614;SDS011;5863;52.832;4.758;2023-10-31T09:39:52;1.80;;;0.60;;
11614;SDS011;5863;52.832;4.758;2023-10-31T09:42:19;1.90;;;0.60;;
11614;SDS011;5863;52.832;4.758;2023-10-31T09:44:46;3.63;;;0.57;;
11614;SDS011;5863;52.832;4.758;2023-10-31T09:47:13;2.22;;;0.63;;
11614;SDS011;5863;52.832;4.758;2023-10-31T09:49:42;0.88;;;0.50;;
11614;SDS011;5863;52.832;4.758;2023-10-31T09:52:10;3.75;;;0.80;;
11614;SDS011;5863;52.832;4.758;2023-10-31T09:54:37;1.50;;;0.52;;
11614;SDS011;5863;52.832;4.758;2023-10-31T09:57:05;1.10;;;0.50;;
11614;SDS011;5863;52.832;4.758;2023-10-31T09:59:32;1.88;;;0.68;;
11614;SDS011;5863;52.832;4.758;2023-10-31T10:01:58;2.13;;;0.65;;
11614;SDS011;5863;52.832;4.758;2023-10-31T10:04:26;2.47;;;0.63;;
11614;SDS011;5863;52.832;4.758;2023-10-31T10:06:59;0.95;;;0.50;;
11614;SDS011;5863;52.832;4.758;2023-10-31T10:09:26;4.97;;;0.90;;
11614;SDS011;5863;52.832;4.758;2023-10-31T10:11:53;2.70;;;0.47;;
11614;SDS011;5863;52.832;4.758;2023-10-31T10:14:22;1.95;;;0.52;;
11614;SDS011;5863;52.832;4.758;2023-10-31T10:16:49;4.05;;;0.80;;
11614;SDS011;5863;52.832;4.758;2023-10-31T10:19:16;3.47;;;0.65;;
11614;SDS011;5863;52.832;4.758;2023-10-31T10:21:48;2.05;;;0.65;;
11614;SDS011;5863;52.832;4.758;2023-10-31T10:24:17;4.82;;;1.08;;
11614;SDS011;5863;52.832;4.758;2023-10-31T10:26:44;2.42;;;0.88;;
11614;SDS011;5863;52.832;4.758;2023-10-31T10:29:11;1.63;;;0.70;;
11614;SDS011;5863;52.832;4.758;2023-10-31T10:31:38;4.70;;;1.20;;
11614;SDS011;5863;52.832;4.758;2023-10-31T10:34:05;4.55;;;1.00;;
11614;SDS011;5863;52.832;4.758;2023-10-31T10:36:32;3.10;;;0.57;;
11614;SDS011;5863;52.832;4.758;2023-10-31T10:38:59;3.03;;;0.73;;
11614;SDS011;5863;52.832;4.758;2023-10-31T10:41:28;1.15;;;0.55;;
11614;SDS011;5863;52.832;4.758;2023-10-31T10:43:55;1.38;;;0.50;;
11614;SDS011;5863;52.832;4.758;2023-10-31T10:46:31;0.45;;;0.43;;
11614;SDS011;5863;52.832;4.758;2023-10-31T10:49:02;0.77;;;0.50;;
11614;SDS011;5863;52.832;4.758;2023-10-31T10:51:34;3.42;;;0.60;;
11614;SDS011;5863;52.832;4.758;2023-10-31T10:54:08;1.65;;;0.68;;
11614;SDS011;5863;52.832;4.758;2023-10-31T10:56:43;1.30;;;0.45;;
11614;SDS011;5863;52.832;4.758;2023-10-31T10:59:18;1.02;;;0.40;;
11614;SDS011;5863;52.832;4.758;2023-10-31T11:01:47;1.58;;;0.50;;
11614;SDS011;5863;52.832;4.758;2023-10-31T11:04:14;0.38;;;0.30;;
11614;SDS011;5863;52.832;4.758;2023-10-31T11:06:42;1.35;;;0.40;;
11614;SDS011;5863;52.832;4.758;2023-10-31T11:09:10;1.55;;;0.22;;
11614;SDS011;5863;52.832;4.758;2023-10-31T11:11:39;3.45;;;0.80;;
11614;SDS011;5863;52.832;4.758;2023-10-31T11:14:14;0.85;;;0.30;;
11614;SDS011;5863;52.832;4.758;2023-10-31T11:16:43;1.60;;;0.55;;
11614;SDS011;5863;52.832;4.758;2023-10-31T11:19:13;2.80;;;0.70;;
11614;SDS011;5863;52.832;4.758;2023-10-31T11:24:26;2.75;;;0.50;;
11614;SDS011;5863;52.832;4.758;2023-10-31T11:26:53;3.13;;;0.60;;
11614;SDS011;5863;52.832;4.758;2023-10-31T11:29:25;2.47;;;0.88;;
11614;SDS011;5863;52.832;4.758;2023-10-31T11:31:53;1.85;;;0.73;;
11614;SDS011;5863;52.832;4.758;2023-10-31T11:34:20;4.05;;;0.65;;
11614;SDS011;5863;52.832;4.758;2023-10-31T11:36:47;0.90;;;0.32;;
11614;SDS011;5863;52.832;4.758;2023-10-31T11:39:15;2.25;;;0.57;;
11614;SDS011;5863;52.832;4.758;2023-10-31T11:41:46;2.22;;;0.45;;
11614;SDS011;5863;52.832;4.758;2023-10-31T11:44:15;1.10;;;0.63;;
11614;SDS011;5863;52.832;4.758;2023-10-31T11:46:43;3.80;;;0.68;;
11614;SDS011;5863;52.832;4.758;2023-10-31T11:49:13;4.03;;;0.63;;
11614;SDS011;5863;52.832;4.758;2023-10-31T11:51:40;2.53;;;0.57;;
11614;SDS011;5863;52.832;4.758;2023-10-31T11:54:10;0.47;;;0.35;;
11614;SDS011;5863;52.832;4.758;2023-10-31T11:56:39;1.02;;;0.47;;
11614;SDS011;5863;52.832;4.758;2023-10-31T11:59:05;4.82;;;0.70;;
11614;SDS011;5863;52.832;4.758;2023-10-31T12:01:33;5.65;;;0.70;;
11614;SDS011;5863;52.832;4.758;2023-10-31T12:04:01;1.20;;;0.60;;
11614;SDS011;5863;52.832;4.758;2023-10-31T12:06:28;3.10;;;1.13;;
11614;SDS011;5863;52.832;4.758;2023-10-31T12:08:58;3.25;;;1.20;;
11614;SDS011;5863;52.832;4.758;2023-10-31T12:11:25;5.63;;;1.00;;
11614;SDS011;5863;52.832;4.758;2023-10-31T12:13:53;4.25;;;0.77;;
11614;SDS011;5863;52.832;4.758;2023-10-31T12:16:22;4.13;;;0.77;;
11614;SDS011;5863;52.832;4.758;2023-10-31T12:18:53;4.10;;;0.52;;
11614;SDS011;5863;52.832;4.758;2023-10-31T12:21:34;2.47;;;0.47;;
11614;SDS011;5863;52.832;4.758;2023-10-31T12:24:03;2.28;;;0.40;;
11614;SDS011;5863;52.832;4.758;2023-10-31T12:26:31;1.00;;;0.32;;
11614;SDS011;5863;52.832;4.758;2023-10-31T12:29:11;0.68;;;0.40;;
11614;SDS011;5863;52.832;4.758;2023-10-31T12:31:39;4.40;;;0.77;;
11614;SDS011;5863;52.832;4.758;2023-10-31T12:34:08;2.83;;;0.52;;
11614;SDS011;5863;52.832;4.758;2023-10-31T12:36:36;4.53;;;0.88;;
11614;SDS011;5863;52.832;4.758;2023-10-31T12:39:05;2.92;;;0.60;;
11614;SDS011;5863;52.832;4.758;2023-10-31T12:41:34;4.15;;;0.73;;
11614;SDS011;5863;52.832;4.758;2023-10-31T12:44:01;4.40;;;0.95;;
11614;SDS011;5863;52.832;4.758;2023-10-31T12:46:29;3.08;;;0.68;;
11614;SDS011;5863;52.832;4.758;2023-10-31T12:48:58;2.72;;;0.68;;
11614;SDS011;5863;52.832;4.758;2023-10-31T12:51:24;2.13;;;0.43;;
11614;SDS011;5863;52.832;4.758;2023-10-31T12:53:53;2.10;;;0.45;;
11614;SDS011;5863;52.832;4.758;2023-10-31T12:56:36;2.03;;;0.73;;
11614;SDS011;5863;52.832;4.758;2023-10-31T12:59:04;3.47;;;0.68;;
11614;SDS011;5863;52.832;4.758;2023-10-31T13:01:32;3.78;;;0.57;;
11614;SDS011;5863;52.832;4.758;2023-10-31T13:03:59;4.28;;;0.95;;
11614;SDS011;5863;52.832;4.758;2023-10-31T13:06:26;4.80;;;0.95;;
11614;SDS011;5863;52.832;4.758;2023-10-31T13:08:56;1.17;;;0.70;;
11614;SDS011;5863;52.832;4.758;2023-10-31T13:11:22;1.02;;;0.55;;
11614;SDS011;5863;52.832;4.758;2023-10-31T13:13:51;3.13;;;1.00;;
11614;SDS011;5863;52.832;4.758;2023-10-31T13:16:18;5.05;;;0.73;;
11614;SDS011;5863;52.832;4.758;2023-10-31T13:18:45;3.30;;;0.60;;
11614;SDS011;5863;52.832;4.758;2023-10-31T13:21:12;2.33;;;0.45;;
11614;SDS011;5863;52.832;4.758;2023-10-31T13:23:39;2.00;;;0.50;;
11614;SDS011;5863;52.832;4.758;2023-10-31T13:26:09;3.35;;;0.52;;
11614;SDS011;5863;52.832;4.758;2023-10-31T13:28:36;2.63;;;0.68;;
11614;SDS011;5863;52.832;4.758;2023-10-31T13:31:04;1.05;;;0.47;;
11614;SDS011;5863;52.832;4.758;2023-10-31T13:33:31;1.88;;;0.52;;
11614;SDS011;5863;52.832;4.758;2023-10-31T13:35:58;2.28;;;0.55;;
11614;SDS011;5863;52.832;4.758;2023-10-31T13:38:25;3.22;;;0.60;;
11614;SDS011;5863;52.832;4.758;2023-10-31T13:40:51;2.13;;;0.57;;
11614;SDS011;5863;52.832;4.758;2023-10-31T13:43:19;2.15;;;0.35;;
11614;SDS011;5863;52.832;4.758;2023-10-31T13:45:46;2.05;;;0.50;;
11614;SDS011;5863;52.832;4.758;2023-10-31T13:48:13;3.28;;;0.40;;
11614;SDS011;5863;52.832;4.758;2023-10-31T13:50:40;0.98;;;0.35;;
11614;SDS011;5863;52.832;4.758;2023-10-31T13:53:07;1.30;;;0.50;;
11614;SDS011;5863;52.832;4.758;2023-10-31T13:55:33;1.15;;;0.30;;
11614;SDS011;5863;52.832;4.758;2023-10-31T13:58:00;1.58;;;0.50;;
11614;SDS011;5863;52.832;4.758;2023-10-31T14:00:28;1.50;;;0.50;;
11614;SDS011;5863;52.832;4.758;2023-10-31T14:02:55;4.80;;;0.93;;
11614;SDS011;5863;52.832;4.758;2023-10-31T14:05:22;4.38;;;0.75;;
11614;SDS011;5863;52.832;4.758;2023-10-31T14:07:49;3.00;;;0.50;;
11614;SDS011;5863;52.832;4.758;2023-10-31T14:10:17;3.78;;;0.47;;
11614;SDS011;5863;52.832;4.758;2023-10-31T14:12:44;0.95;;;0.50;;
11614;SDS011;5863;52.832;4.758;2023-10-31T14:15:11;1.77;;;0.60;;
11614;SDS011;5863;52.832;4.758;2023-10-31T14:17:39;4.22;;;1.42;;
11614;SDS011;5863;52.832;4.758;2023-10-31T14:20:07;2.65;;;0.63;;
11614;SDS011;5863;52.832;4.758;2023-10-31T14:22:34;1.33;;;0.60;;
11614;SDS011;5863;52.832;4.758;2023-10-31T14:25:01;3.33;;;0.55;;
11614;SDS011;5863;52.832;4.758;2023-10-31T14:27:29;6.03;;;0.80;;
11614;SDS011;5863;52.832;4.758;2023-10-31T14:29:56;2.03;;;1.05;;
11614;SDS011;5863;52.832;4.758;2023-10-31T14:32:23;3.05;;;0.50;;
11614;SDS011;5863;52.832;4.758;2023-10-31T14:34:51;3.35;;;0.52;;
11614;SDS011;5863;52.832;4.758;2023-10-31T14:37:18;2.08;;;0.45;;
11614;SDS011;5863;52.832;4.758;2023-10-31T14:39:45;2.28;;;0.35;;
11614;SDS011;5863;52.832;4.758;2023-10-31T14:42:11;3.13;;;0.43;;
11614;SDS011;5863;52.832;4.758;2023-10-31T14:44:38;1.00;;;0.45;;
11614;SDS011;5863;52.832;4.758;2023-10-31T14:47:05;0.40;;;0.25;;
11614;SDS011;5863;52.832;4.758;2023-10-31T14:49:31;2.17;;;0.45;;
11614;SDS011;5863;52.832;4.758;2023-10-31T14:51:59;1.17;;;0.32;;
11614;SDS011;5863;52.832;4.758;2023-10-31T14:54:26;1.05;;;0.35;;
11614;SDS011;5863;52.832;4.758;2023-10-31T14:56:54;0.57;;;0.20;;
11614;SDS011;5863;52.832;4.758;2023-10-31T14:59:20;2.10;;;0.35;;
11614;SDS011;5863;52.832;4.758;2023-10-31T15:01:47;2.13;;;0.50;;
11614;SDS011;5863;52.832;4.758;2023-10-31T15:04:14;1.38;;;0.50;;